Погода Югановона 2 недели

Смоленская область, Россия

23 мая-05 июня
  • 23мая
    Сегодня
    +8°
    +23°
    Ясно и безоблачно
    ВремяПогодаТемператураВлажностьДавлениеВетер, м/сВероятность осадков
    00:00Ясно и безоблачно+13°C51 %751 мм3.1 м/с2 %
    03:00Ясно и безоблачно+10°C54 %751 мм3.4 м/с2 %
    06:00Ясно и безоблачно+10°C59 %752 мм3.4 м/с2 %
    09:00Ясно и безоблачно+16°C50 %753 мм3.8 м/с2 %
    12:00Ясно и безоблачно+21°C35 %754 мм4.6 м/с2 %
    15:00Ясно и безоблачно+22°C34 %754 мм3.9 м/с2 %
    18:00Ясно и безоблачно+22°C36 %753 мм4.4 м/с2 %
    21:00Ясно и безоблачно+17°C49 %754 мм2.8 м/с2 %
  • 24мая
    Пятница
    +7°
    +21°
    Ясно и безоблачно
    ВремяПогодаТемператураВлажностьДавлениеВетер, м/сВероятность осадков
    00:00Ясно и безоблачно+12°C59 %755 мм2.9 м/с2 %
    03:00Ясно и безоблачно+10°C64 %756 мм3.0 м/с2 %
    06:00Ясно и безоблачно+10°C64 %757 мм3.0 м/с2 %
    09:00Ясно и безоблачно+15°C43 %757 мм3.7 м/с2 %
    12:00Ясно и безоблачно+19°C32 %757 мм4.3 м/с2 %
    15:00Ясно и безоблачно+20°C29 %756 мм3.9 м/с2 %
    18:00Ясно и безоблачно+21°C30 %756 мм3.5 м/с2 %
    21:00Ясно и безоблачно+16°C47 %756 мм2.6 м/с2 %
  • 25мая
    Суббота
    +9°
    +24°
    Ясно и безоблачно
    ВремяПогодаТемператураВлажностьДавлениеВетер, м/сВероятность осадков
    00:00Ясно и безоблачно+11°C55 %756 мм3.1 м/с2 %
    03:00Ясно и безоблачно+9°C65 %756 мм2.7 м/с2 %
    06:00Ясно и безоблачно+9°C69 %755 мм2.7 м/с2 %
    09:00Ясно и безоблачно+16°C54 %755 мм2.1 м/с2 %
    12:00Ясно и безоблачно+21°C42 %754 мм2.7 м/с2 %
    15:00Ясно и безоблачно+23°C36 %754 мм3.2 м/с2 %
    18:00Ясно и безоблачно+23°C37 %752 мм2.6 м/с2 %
    21:00Ясно и безоблачно+17°C65 %752 мм2.3 м/с2 %
  • 26мая
    Воскресенье
    +11°
    +26°
    Небольшая облачность
    ВремяПогодаТемператураВлажностьДавлениеВетер, м/сВероятность осадков
    00:00Ясно и безоблачно+13°C75 %752 мм2.4 м/с2 %
    03:00Ясно и безоблачно+11°C77 %752 мм2.7 м/с2 %
    06:00Ясно и безоблачно+11°C73 %752 мм2.3 м/с2 %
    09:00Ясно и безоблачно+19°C55 %752 мм2.0 м/с3 %
    12:00Практически безоблачно+23°C39 %752 мм1.8 м/с6 %
    15:00Небольшая облачность+25°C35 %751 мм1.5 м/с17 %
    18:00Небольшая облачность+26°C35 %751 мм2.0 м/с28 %
    21:00Практически безоблачно+19°C60 %751 мм2.2 м/с17 %
  • 27мая
    Понедельник
    +12°
    +24°
    Облачно с прояснениями
    ВремяПогодаТемператураВлажностьДавлениеВетер, м/сВероятность осадков
    00:00Ясно и безоблачно+16°C66 %752 мм3.0 м/с5 %
    03:00Небольшая облачность+12°C86 %752 мм2.1 м/с3 %
    06:00Ясно и безоблачно+13°C92 %753 мм2.4 м/с3 %
    09:00Ясно и безоблачно+19°C73 %753 мм2.1 м/с4 %
    12:00Практически безоблачно+23°C56 %753 мм2.2 м/с23 %
    15:00Облачно с прояснениями+23°C50 %753 мм1.9 м/с27 %
    18:00Небольшая облачность+22°C56 %752 мм2.5 м/с27 %
    21:00Практически безоблачно+19°C71 %752 мм1.7 м/с9 %
Мы используем cookies
Соглашаюсь